Abegondo, Spain
Current Conditions -  °F | °C
As of 1:00 AM on Sunday 26 Oct 2014 (Local Time) from LECO Reporting Station
Haze Haze  
Wind Chill: 59°   Ceiling: Unl
Heat Index: 59°   Visibility: 1.8mi
Dew Point: 59°   Wind: 3mph
Humidity: 100%   Direction: 200°SSW
Pressure: 30.12"   Gusts: NA
Location:  43.22°N, 8.28°W
Report Text: LECO 252300Z 20003KT 3000 BR NSC 15/15 Q1020 NOSIG
Loading
Personal Weather Stations






























Interactive Weather Map New forecast layout! Learn more

10-Day Weather Forecast

Advertisements
Track Severe Weather on mobile